Meeting de la Grenouille CNHT

Départementale

HUSSEREN-WESSERLING

Le Dimanche 14 Avril 2013

Bassin de 25m

50 Nage Libre Messieurs

Séries

Nom Année Club Pays Temps Points Niv.
1 VISINESCU Adrian 1976 CN SAUSHEIM FRA 0:25:42 1100
2 SCHOENIG Quentin 1992 A.N.S D'ILLFURTH FRA 0:26:40 1033
3 BRAVO Luca 1998 A.N.S D'ILLFURTH FRA 0:28:57 891
4 DEWULF Mickael 1995 CLUB NAUTIQUE DE LA DOLLER FRA 0:28:57 891
5 RUFFINONI Baptiste 1998 KAYSERSBERG NATATION FRA 0:29:51 834
6 WEHRLEN Maxime 1995 CNHT WESSERLING FRA 0:30:11 798
7 ZURCHER Antoine 1998 CN SAUSHEIM FRA 0:30:32 785
8 WIOLAND Guillaume 1996 A.N.S D'ILLFURTH FRA 0:30:62 768
9 DEWULF Florian 1997 CLUB NAUTIQUE DE LA DOLLER FRA 0:31:17 736
10 HAGENBACH Yann 1993 A.N.S D'ILLFURTH FRA 0:31:77 702
11 SCHULER Matthieu 1998 KAYSERSBERG NATATION FRA 0:31:84 698
12 LAMOLINAIRIE Quentin 1998 CN ILE DU RHIN FRA 0:32:20 678
13 LUDWIG Quentin 1999 KAYSERSBERG NATATION FRA 0:32:40 668
14 APPELSHAUSER Arthur 1997 A.N.S D'ILLFURTH FRA 0:32:48 663
15 NICOLLE Anthony 1985 CLUB NAUTIQUE DE LA DOLLER FRA 0:32:51 662
16 GUR Ludovic 1998 A.N.S D'ILLFURTH FRA 0:32:82 645
17 GASTAL Alexandre 1999 SR CERNAY FRA 0:32:87 642
18 BIRO Charly 1999 CN SAUSHEIM FRA 0:33:05 633
19 ALLENBACH Lucas 2000 CNHT WESSERLING FRA 0:33:21 624
20 SCHMITT Dominique 1968 CLUB NAUTIQUE DE LA DOLLER FRA 0:33:62 603
21 SAVARY Adrien 2000 CN ILE DU RHIN FRA 0:33:90 589
22 PREVOST Antoine 1998 CN ILE DU RHIN FRA 0:33:98 585
23 WALTZER Thomas 2001 A.N.S D'ILLFURTH FRA 0:35:10 529
24 LEBER Léo 1999 A.N.S D'ILLFURTH FRA 0:35:25 522
25 PFLIEGER Damien 1997 A.N.S D'ILLFURTH FRA 0:35:64 503
26 LUMIA Hugo 2001 CNHT WESSERLING FRA 0:37:13 436
27 LAMOLINAIRIE Théo 2001 CN ILE DU RHIN FRA 0:37:51 419
28 GUR Fabien 2000 A.N.S D'ILLFURTH FRA 0:37:74 409
29 HELM Lucas 2001 CN ILE DU RHIN FRA 0:37:79 407
30 EDDAHDOUHI Fahmi 2000 A.N.S D'ILLFURTH FRA 0:37:80 407
31 SCHMIDT Maxime 1995 KAYSERSBERG NATATION FRA 0:37:88 403
32 BRAND Alban 2000 CNHT WESSERLING FRA 0:38:00 398
33 PEROZ Tom 2003 SR CERNAY FRA 0:38:29 386
34 BABIN Paul 2000 KAYSERSBERG NATATION FRA 0:38:41 381
35 BOLLECKER Ange 1998 CNHT WESSERLING FRA 0:38:64 372
36 MANYIM Franck 2001 CNHT WESSERLING FRA 0:38:76 367
37 KIBLER Guillaume 2000 CNHT WESSERLING FRA 0:39:36 343
38 MASSON Nathanaël 2002 KAYSERSBERG NATATION FRA 0:40:22 311
39 HALLER Regis 2001 CNHT WESSERLING FRA 0:41:46 267
40 STUDER Thomas 2003 CNHT WESSERLING FRA 0:43:16 211
41 NAEGELEN Thibaud 2003 CNHT WESSERLING FRA 0:43:99 187
42 GOFFENEY Stéphane 1992 KAYSERSBERG NATATION FRA 0:47:21 106
43 FABRE Charles 2002 CN ILE DU RHIN FRA 0:48:61 78
44 ARNOLD Florimon 2002 CNHT WESSERLING FRA 1:08:80 1
45 MUNSCH Maxime 2002 CNHT WESSERLING FRA - Disq.
46 WELKER Theo 2002 CNHT WESSERLING FRA - Disq.